Terminal Aerodrome Forecast
Issued by NWS

Home | Current Version | Previous Version | Text Only | Print | Product List | Glossary On
Versions: 1 2 3 4 5 6 7 8 9 10 11 12 13 14 15 16 17 18 19 20 21 22
000
FTUS45 KABQ 221500 AAA
TAFLVS
TAF AMD
KLVS 221535Z 2216/2312 17010KT P6SM -SHRA SCT006 BKN012
      TEMPO 2216/2218 6SM -RA BR BKN006
     FM222100 15015G25KT P6SM VCTS SCT015 OVC040CB
     FM230000 18010KT P6SM VCSH SCT002 OVC015
     FM230200 18010KT P6SM VCFG SCT001 OVC003
     FM230800 21005KT P6SM SCT003 BKN025=

USA.gov is the U.S. government's official web portal to all federal, state and local government web resources and services.